Time;durP1;ratioP1;P1;durP2;ratioP2;P2;SDS_P1;SDS_P2;PMS_P1;PMS_P2;Temp;Humidity;BMP_temperature;BMP_pressure;BME280_temperature;BME280_humidity;BME280_pressure;Samples;Min_cycle;Max_cycle;Signal;HPM_P1;HPM_P2
2023/07/25 00:01:04;;;;;;;3.70;1.30;;;;;;;20.18;65.37;100641.09;10251049;28;97207;-79
2023/07/25 00:06:08;;;;;;;3.08;1.38;;;;;;;19.98;65.79;100645.19;10297344;28;96643;-79
2023/07/25 00:11:13;;;;;;;6.07;1.30;;;;;;;19.86;66.15;100640.75;10297570;28;96938;-79
2023/07/25 00:16:18;;;;;;;3.13;1.10;;;;;;;19.74;66.71;100646.94;10296347;28;96705;-79
2023/07/25 00:21:21;;;;;;;2.33;1.10;;;;;;;19.72;66.84;100642.69;10294817;28;96632;-79
2023/07/25 00:26:25;;;;;;;3.30;1.40;;;;;;;19.65;66.88;100639.59;10264053;28;96742;-78
2023/07/25 00:31:29;;;;;;;2.15;1.40;;;;;;;19.57;67.01;100641.94;10255920;28;96687;-79
2023/07/25 00:36:33;;;;;;;2.30;1.45;;;;;;;19.48;67.29;100634.59;10256022;28;96753;-79
2023/07/25 00:41:37;;;;;;;3.47;1.65;;;;;;;19.44;67.19;100635.75;10256106;28;97029;-78
2023/07/25 00:46:43;;;;;;;3.63;1.70;;;;;;;19.39;67.51;100635.19;10255427;28;96750;-79
2023/07/25 00:51:46;;;;;;;3.58;1.55;;;;;;;19.37;67.74;100631.78;10255470;28;96705;-79
2023/07/25 00:56:50;;;;;;;4.82;1.58;;;;;;;19.26;67.92;100642.34;10293525;28;96590;-79
2023/07/25 01:01:55;;;;;;;2.47;1.35;;;;;;;19.31;67.71;100640.22;10295820;28;96851;-79
2023/07/25 01:07:00;;;;;;;3.55;1.45;;;;;;;19.27;67.73;100633.38;10295571;28;96633;-79
2023/07/25 01:12:05;;;;;;;3.58;1.65;;;;;;;19.21;67.77;100634.69;10293598;28;96720;-79
2023/07/25 01:17:12;;;;;;;2.08;1.33;;;;;;;19.14;68.06;100627.19;10294338;28;96916;-79
2023/07/25 01:22:16;;;;;;;3.15;1.55;;;;;;;19.16;67.90;100627.94;10295244;28;96738;-79
2023/07/25 01:27:20;;;;;;;2.30;1.53;;;;;;;19.22;67.56;100632.84;10255174;28;96774;-79
2023/07/25 01:32:24;;;;;;;3.08;1.70;;;;;;;19.11;67.84;100630.91;10253608;28;96817;-78
2023/07/25 01:37:27;;;;;;;4.00;1.60;;;;;;;19.10;67.66;100625.69;10254466;28;97481;-79
2023/07/25 01:42:32;;;;;;;2.83;1.67;;;;;;;18.63;68.63;100620.03;10254405;28;96910;-79
2023/07/25 01:47:35;;;;;;;3.08;1.50;;;;;;;18.99;67.31;100626.41;10254922;28;96704;-79
2023/07/25 01:52:38;;;;;;;2.38;1.30;;;;;;;18.96;67.65;100628.44;10253583;28;96588;-79
2023/07/25 01:57:43;;;;;;;4.50;2.03;;;;;;;18.99;67.48;100618.41;10253689;28;97197;-79
2023/07/25 02:02:46;;;;;;;3.33;1.33;;;;;;;18.63;68.38;100628.03;10253086;28;96739;-79
2023/07/25 02:07:50;;;;;;;2.67;1.50;;;;;;;18.69;68.17;100622.31;10253340;28;96610;-79
2023/07/25 02:12:56;;;;;;;5.70;1.80;;;;;;;18.42;68.65;100629.44;10253336;28;96690;-79
2023/07/25 02:17:59;;;;;;;3.03;1.38;;;;;;;18.46;68.48;100628.25;10253012;28;96916;-79
2023/07/25 02:23:02;;;;;;;2.17;1.20;;;;;;;17.96;69.26;100619.09;10253136;28;96601;-79
2023/07/25 02:28:07;;;;;;;3.90;1.80;;;;;;;18.03;69.70;100623.09;10252534;28;96871;-79
2023/07/25 02:33:10;;;;;;;;;;;;;;;18.40;69.10;100613.56;10253172;28;96741;-79
2023/07/25 02:38:13;;;;;;;2.63;1.38;;;;;;;18.26;68.66;100616.28;10254005;28;97494;-80
2023/07/25 02:43:18;;;;;;;3.05;1.30;;;;;;;18.18;68.36;100624.75;10256401;28;96727;-79
2023/07/25 02:48:21;;;;;;;;;;;;;;;18.18;68.81;100632.75;10259723;28;96688;-79
2023/07/25 02:53:24;;;;;;;3.38;1.55;;;;;;;18.05;68.64;100629.19;10276775;28;96772;-79
2023/07/25 02:58:46;;;;;;;2.85;1.65;;;;;;;17.63;69.41;100641.66;10298674;28;96659;-79
2023/07/25 03:03:49;;;;;;;2.20;1.40;;;;;;;18.04;69.14;100637.25;10299286;28;96782;-79
2023/07/25 03:08:53;;;;;;;3.55;1.80;;;;;;;17.93;69.31;100640.59;10298770;28;97647;-79
2023/07/25 03:13:57;;;;;;;4.60;1.55;;;;;;;17.89;69.42;100633.75;10299250;28;97025;-79
2023/07/25 03:19:18;;;;;;;4.30;1.70;;;;;;;17.96;68.86;100623.56;10297155;28;96692;-79
2023/07/25 03:24:22;;;;;;;3.58;1.80;;;;;;;17.82;68.53;100616.47;10282871;28;96683;-79
2023/07/25 03:29:26;;;;;;;4.07;1.40;;;;;;;17.45;70.15;100614.34;10259579;28;96712;-79
2023/07/25 03:34:29;;;;;;;;;;;;;;;17.48;70.16;100624.88;10258512;28;96653;-79
2023/07/25 03:39:33;;;;;;;3.67;1.52;;;;;;;17.69;69.60;100618.19;10257968;28;97744;-79
2023/07/25 03:44:54;;;;;;;4.65;1.40;;;;;;;17.55;69.32;100618.22;10256824;28;97925;-79
2023/07/25 03:49:57;;;;;;;;;;;;;;;17.51;70.48;100616.69;10257943;28;97565;-79
2023/07/25 03:55:01;;;;;;;3.03;1.58;;;;;;;17.50;69.50;100628.25;10257032;28;96856;-79
2023/07/25 04:00:06;;;;;;;2.95;1.48;;;;;;;17.41;69.38;100626.16;10257706;28;96671;-79
2023/07/25 04:05:10;;;;;;;3.97;1.48;;;;;;;17.29;70.07;100621.59;10256958;28;97078;-79
2023/07/25 04:10:30;;;;;;;2.42;1.30;;;;;;;17.25;69.88;100624.50;10250778;28;96499;-79
2023/07/25 04:15:35;;;;;;;4.15;1.58;;;;;;;17.32;69.85;100626.72;10256772;28;97098;-80
2023/07/25 04:20:38;;;;;;;2.95;1.60;;;;;;;17.12;70.17;100632.38;10292896;28;96818;-79
2023/07/25 04:25:42;;;;;;;1.85;1.30;;;;;;;17.22;70.32;100636.22;10269646;28;98008;-79
2023/07/25 04:30:46;;;;;;;3.28;1.60;;;;;;;17.08;70.63;100638.84;10256377;28;96974;-79
2023/07/25 04:35:49;;;;;;;;;;;;;;;17.00;71.38;100639.28;10256014;28;96728;-79
2023/07/25 04:41:10;;;;;;;2.60;1.88;;;;;;;17.12;70.34;100640.34;10255184;28;96675;-79
2023/07/25 04:46:15;;;;;;;3.00;1.70;;;;;;;17.02;70.61;100649.84;10255650;28;97505;-79
2023/07/25 04:51:18;;;;;;;3.47;1.95;;;;;;;17.05;70.25;100658.47;10256251;28;96789;-79
2023/07/25 04:56:22;;;;;;;3.25;1.73;;;;;;;16.94;70.77;100658.28;10255052;28;96592;-79
2023/07/25 05:01:26;;;;;;;3.28;2.03;;;;;;;17.03;70.71;100652.41;10255274;28;96792;-79
2023/07/25 05:06:30;;;;;;;5.15;1.65;;;;;;;17.14;69.83;100659.72;10253848;28;96676;-79
2023/07/25 05:11:33;;;;;;;6.18;2.20;;;;;;;16.87;70.45;100664.91;10256778;28;97728;-79
2023/07/25 05:16:38;;;;;;;4.30;1.92;;;;;;;16.82;70.89;100669.66;10254197;28;96930;-78
2023/07/25 05:21:59;;;;;;;3.35;1.83;;;;;;;16.56;71.65;100680.06;10253521;28;96788;-79
2023/07/25 05:27:03;;;;;;;3.10;1.40;;;;;;;16.70;71.66;100680.13;10276555;28;97724;-79
2023/07/25 05:32:08;;;;;;;3.88;1.80;;;;;;;17.07;70.21;100679.66;10294759;28;96764;-79
2023/07/25 05:37:11;;;;;;;2.33;1.35;;;;;;;17.48;69.50;100680.75;10294348;28;96618;-79
2023/07/25 05:42:15;;;;;;;3.60;1.83;;;;;;;17.58;69.41;100687.22;10293750;28;96676;-79
2023/07/25 05:47:20;;;;;;;3.20;1.40;;;;;;;17.31;69.73;100699.47;10287590;22;98542;-79
2023/07/25 05:52:41;;;;;;;3.22;1.45;;;;;;;17.27;69.97;100697.09;10234336;28;96705;-79
2023/07/25 05:57:44;;;;;;;3.75;1.80;;;;;;;17.33;70.36;100694.91;10253596;28;96959;-79
2023/07/25 06:03:06;;;;;;;3.42;2.05;;;;;;;17.53;70.35;100699.06;10289412;28;97033;-79
2023/07/25 06:08:09;;;;;;;;;;;;;;;17.79;70.52;100696.53;10273844;28;96739;-79
2023/07/25 06:13:13;;;;;;;4.05;2.05;;;;;;;17.86;69.67;100711.19;10253656;28;97498;-79
2023/07/25 06:18:17;;;;;;;3.63;2.00;;;;;;;17.85;70.33;100712.09;10256259;28;96679;-79
2023/07/25 06:23:21;;;;;;;;;;;;;;;17.77;70.76;100716.19;10260821;28;96714;-79
2023/07/25 06:28:24;;;;;;;2.88;1.90;;;;;;;17.86;69.78;100720.97;10260791;28;96905;-79
2023/07/25 06:33:46;;;;;;;3.22;2.08;;;;;;;18.12;69.57;100717.53;10254231;28;97337;-79
2023/07/25 06:38:49;;;;;;;;;;;;;;;18.08;69.93;100735.50;10260309;28;96617;-79
2023/07/25 06:43:52;;;;;;;3.28;1.60;;;;;;;18.08;69.76;100730.19;10259917;28;96607;-78
2023/07/25 06:48:57;;;;;;;5.68;2.28;;;;;;;18.18;70.10;100741.09;10259216;28;96765;-79
2023/07/25 06:54:00;;;;;;;;;;;;;;;18.40;70.01;100745.94;10299814;28;96739;-79
2023/07/25 06:59:04;;;;;;;2.58;1.60;;;;;;;18.60;68.73;100743.72;10299683;28;96918;-79
2023/07/25 07:04:09;;;;;;;3.50;2.10;;;;;;;18.66;69.12;100745.97;10299870;28;97108;-79
2023/07/25 07:09:29;;;;;;;5.85;2.42;;;;;;;18.73;69.11;100763.28;10291285;28;96636;-79
2023/07/25 07:14:33;;;;;;;4.50;2.00;;;;;;;18.71;69.22;100761.69;10299568;28;97226;-79
2023/07/25 07:19:38;;;;;;;2.80;1.70;;;;;;;18.99;68.91;100758.94;10298498;28;96774;-79
2023/07/25 07:24:41;;;;;;;3.33;1.85;;;;;;;19.05;68.51;100772.72;10285961;28;96730;-79
2023/07/25 07:29:44;;;;;;;4.35;2.13;;;;;;;19.40;67.83;100773.06;10257137;28;96754;-79
2023/07/25 07:35:07;;;;;;;4.25;2.00;;;;;;;19.39;67.67;100754.47;10251853;28;97529;-79
2023/07/25 07:40:10;;;;;;;3.25;1.70;;;;;;;19.61;67.13;100768.94;10258027;28;97272;-79
2023/07/25 07:45:14;;;;;;;4.05;1.92;;;;;;;19.77;66.81;100764.22;10243221;28;97070;-79
2023/07/25 07:50:18;;;;;;;3.85;2.38;;;;;;;19.97;66.15;100757.50;10256958;28;97299;-79
2023/07/25 07:55:23;;;;;;;2.90;1.75;;;;;;;19.99;66.11;100769.81;10257624;28;97692;-79
2023/07/25 08:00:26;;;;;;;4.63;1.85;;;;;;;20.28;65.46;100762.41;10282433;28;96618;-79
2023/07/25 08:05:31;;;;;;;3.00;1.83;;;;;;;20.52;64.94;100771.34;10297603;28;96773;-79
2023/07/25 08:10:34;;;;;;;3.50;1.70;;;;;;;20.52;64.56;100766.00;10297325;28;96755;-79
2023/07/25 08:15:37;;;;;;;3.70;1.88;;;;;;;20.61;64.05;100765.34;10296195;28;96883;-79
2023/07/25 08:20:44;;;;;;;4.57;1.80;;;;;;;20.83;63.49;100769.97;10297297;28;96621;-79
2023/07/25 08:25:47;;;;;;;3.38;1.33;;;;;;;20.88;63.43;100771.34;10296900;28;96939;-79
2023/07/25 08:30:59;;;;;;;4.20;1.90;;;;;;;20.98;62.70;100775.03;10296311;28;96818;-79
2023/07/25 08:36:05;;;;;;;3.38;1.52;;;;;;;21.30;62.76;100772.66;10296717;28;97623;-79
2023/07/25 08:41:11;;;;;;;6.05;2.03;;;;;;;21.23;62.62;100766.94;10296320;28;97702;-79
2023/07/25 08:46:19;;;;;;;4.78;1.77;;;;;;;21.39;61.81;100767.50;10262469;28;96707;-79
2023/07/25 08:51:28;;;;;;;3.13;1.77;;;;;;;21.41;61.19;100768.19;10267880;28;97139;-79
2023/07/25 08:56:32;;;;;;;3.00;1.80;;;;;;;21.60;60.82;100762.31;10255332;28;96758;-79
2023/07/25 09:01:36;;;;;;;3.75;2.08;;;;;;;21.89;60.58;100760.03;10255242;28;96703;-78
2023/07/25 09:06:41;;;;;;;3.55;1.83;;;;;;;22.12;60.14;100761.81;10255778;28;96763;-79
2023/07/25 09:11:45;;;;;;;2.75;1.92;;;;;;;22.52;59.38;100746.91;10255082;28;97107;-79
2023/07/25 09:16:48;;;;;;;4.03;1.98;;;;;;;22.84;58.54;100741.63;10254763;28;97619;-79
2023/07/25 09:21:54;;;;;;;4.23;2.07;;;;;;;22.99;57.77;100732.31;10254889;28;96732;-78
2023/07/25 09:26:57;;;;;;;3.50;2.17;;;;;;;23.10;56.83;100732.25;10255992;28;97064;-78
2023/07/25 09:32:21;;;;;;;3.05;2.03;;;;;;;23.14;55.28;100739.06;10250714;28;97574;-78
2023/07/25 09:37:26;;;;;;;3.65;2.00;;;;;;;23.03;53.41;100731.91;10254193;28;96664;-79
2023/07/25 09:42:30;;;;;;;4.57;2.40;;;;;;;22.96;51.43;100727.19;10253487;28;96656;-79
2023/07/25 09:47:33;;;;;;;3.50;1.93;;;;;;;23.38;50.88;100723.56;10253581;28;97667;-79
2023/07/25 09:52:42;;;;;;;3.50;1.87;;;;;;;23.49;49.33;100729.72;10253504;28;96780;-79
2023/07/25 09:57:46;;;;;;;5.18;2.00;;;;;;;23.68;49.16;100734.44;10254145;28;97027;-79
2023/07/25 10:02:50;;;;;;;2.38;1.70;;;;;;;23.74;48.79;100728.50;10253833;28;96782;-79
2023/07/25 10:07:56;;;;;;;3.55;2.05;;;;;;;23.83;48.34;100718.81;10253866;28;97803;-79
2023/07/25 10:13:17;;;;;;;4.63;2.10;;;;;;;24.14;48.25;100720.50;10251918;28;96749;-79
2023/07/25 10:18:22;;;;;;;3.27;1.90;;;;;;;24.33;47.56;100721.47;10253493;28;96719;-79
2023/07/25 10:23:53;;;;;;;4.32;2.15;;;;;;;24.32;46.58;100725.16;10251648;28;98118;-79
2023/07/25 10:28:59;;;;;;;3.58;2.08;;;;;;;24.49;46.10;100720.94;10252860;28;96639;-79
2023/07/25 10:34:19;;;;;;;4.05;2.17;;;;;;;24.69;45.30;100717.28;10246164;28;96756;-79
2023/07/25 10:39:26;;;;;;;3.87;2.20;;;;;;;24.73;45.15;100710.66;10252597;28;97136;-79
2023/07/25 10:44:39;;;;;;;3.47;1.98;;;;;;;24.63;43.67;100707.09;10252428;28;96905;-79
2023/07/25 10:49:55;;;;;;;2.72;1.98;;;;;;;24.95;43.44;100706.88;10252334;28;96888;-79
2023/07/25 10:55:05;;;;;;;2.28;1.50;;;;;;;25.18;43.56;100706.47;10252615;28;97672;-79
2023/07/25 11:00:11;;;;;;;5.13;2.45;;;;;;;25.23;43.07;100703.31;10252076;28;97125;-79
2023/07/25 11:05:31;;;;;;;3.03;1.83;;;;;;;25.24;42.94;100702.34;10255143;28;96706;-79
2023/07/25 11:11:03;;;;;;;4.65;2.25;;;;;;;25.82;42.87;100695.88;10259547;28;96877;-79
2023/07/25 11:16:08;;;;;;;3.17;1.90;;;;;;;26.04;42.50;100698.19;10258309;28;96930;-79
2023/07/25 11:21:11;;;;;;;3.67;2.30;;;;;;;25.95;42.84;100698.25;10258733;28;96696;-79
2023/07/25 11:26:33;;;;;;;3.50;1.70;;;;;;;26.01;42.87;100686.84;10296223;28;97236;-79
2023/07/25 11:31:41;;;;;;;3.03;1.80;;;;;;;26.49;42.59;100688.34;10299200;28;96710;-79
2023/07/25 11:37:09;;;;;;;3.00;2.00;;;;;;;26.63;42.67;100679.72;10294383;28;96707;-79
2023/07/25 11:42:15;;;;;;;3.88;2.10;;;;;;;27.02;42.74;100672.19;10296753;28;96812;-79
2023/07/25 11:47:37;;;;;;;2.92;2.00;;;;;;;26.49;42.22;100661.34;10255930;28;97476;-80
2023/07/25 11:52:58;;;;;;;4.95;2.42;;;;;;;26.93;41.51;100668.56;10251518;28;96586;-79
2023/07/25 11:58:04;;;;;;;;;;;;;;;26.96;39.99;100662.84;10258274;28;96699;-79
2023/07/25 12:03:17;;;;;;;4.45;1.88;;;;;;;26.82;39.66;100660.69;10258209;28;96717;-79
2023/07/25 12:08:31;;;;;;;2.73;1.90;;;;;;;26.35;40.83;100658.31;10257551;28;97519;-79
2023/07/25 12:13:43;;;;;;;3.35;1.90;;;;;;;26.98;39.81;100655.44;10256845;28;96606;-79
2023/07/25 12:18:52;;;;;;;2.80;1.90;;;;;;;27.36;39.11;100646.13;10255401;28;96892;-79
2023/07/25 12:23:58;;;;;;;3.08;2.05;;;;;;;27.63;39.96;100640.56;10256440;28;96658;-78
2023/07/25 12:29:13;;;;;;;2.50;1.63;;;;;;;27.56;38.85;100635.97;10256663;28;96619;-79
2023/07/25 12:34:18;;;;;;;3.45;2.17;;;;;;;27.42;40.03;100636.56;10215535;28;96684;-79
2023/07/25 12:39:22;;;;;;;4.60;2.30;;;;;;;27.67;39.48;100630.31;10215648;28;96799;-79
2023/07/25 12:44:26;;;;;;;3.67;2.50;;;;;;;27.77;39.91;100623.78;10233831;28;97564;-79
2023/07/25 12:49:32;;;;;;;5.00;2.15;;;;;;;28.13;39.77;100626.31;10256316;28;96903;-79
2023/07/25 12:54:36;;;;;;;3.13;2.33;;;;;;;27.47;39.65;100624.25;10256972;28;97232;-79
2023/07/25 12:59:40;;;;;;;;;;;;;;;27.70;39.22;100619.19;10255876;28;96663;-79
2023/07/25 13:04:43;;;;;;;3.20;2.13;;;;;;;28.16;38.80;100610.59;10256219;28;96798;-79
2023/07/25 13:09:47;;;;;;;4.82;1.92;;;;;;;28.18;38.81;100596.88;10254052;28;96573;-79
2023/07/25 13:14:51;;;;;;;2.97;2.15;;;;;;;28.15;38.23;100589.97;10255202;28;96712;-79
2023/07/25 13:19:55;;;;;;;3.25;1.90;;;;;;;28.34;37.42;100592.41;10254620;28;97065;-79
2023/07/25 13:24:58;;;;;;;3.03;1.90;;;;;;;28.51;37.51;100585.16;10254919;28;96850;-79
2023/07/25 13:30:20;;;;;;;4.00;2.28;;;;;;;28.73;37.14;100585.34;10248003;28;96775;-79
2023/07/25 13:35:24;;;;;;;3.10;1.98;;;;;;;28.63;37.44;100565.72;10254638;28;97228;-79
2023/07/25 13:40:28;;;;;;;3.38;2.38;;;;;;;28.70;37.40;100553.19;10254577;28;96606;-79
2023/07/25 13:45:33;;;;;;;2.83;1.73;;;;;;;28.78;37.03;100557.72;10254924;28;96810;-79
2023/07/25 13:50:53;;;;;;;3.78;2.40;;;;;;;28.68;36.76;100548.94;10254089;28;97809;-79
2023/07/25 13:55:57;;;;;;;3.88;1.92;;;;;;;28.94;36.90;100542.38;10254369;28;96760;-78
2023/07/25 14:01:02;;;;;;;4.55;2.35;;;;;;;28.82;36.50;100541.00;10252991;28;97394;-79
2023/07/25 14:06:05;;;;;;;3.20;2.28;;;;;;;28.96;37.11;100534.91;10253536;28;97673;-79
2023/07/25 14:11:08;;;;;;;4.70;2.20;;;;;;;28.94;37.26;100528.81;10253871;28;96839;-79
2023/07/25 14:16:13;;;;;;;4.00;2.67;;;;;;;29.23;36.74;100516.53;10252776;28;96707;-79
2023/07/25 14:21:16;;;;;;;4.35;2.67;;;;;;;29.33;36.60;100519.94;10253229;28;96885;-79
2023/07/25 14:26:20;;;;;;;2.83;2.22;;;;;;;29.45;36.55;100516.63;10253090;28;97735;-79
2023/07/25 14:31:25;;;;;;;;;;;;;;;29.50;35.79;100510.72;10254282;28;96756;-79
2023/07/25 14:36:28;;;;;;;3.33;1.95;;;;;;;29.80;35.65;100501.78;10253767;28;97548;-78
2023/07/25 14:41:32;;;;;;;3.72;2.20;;;;;;;29.74;35.46;100506.06;10259593;28;96748;-79
2023/07/25 14:46:56;;;;;;;2.90;2.10;;;;;;;29.63;35.41;100489.31;10259390;28;96734;-79
2023/07/25 14:51:59;;;;;;;5.03;2.40;;;;;;;29.73;35.57;100490.78;10258155;28;97231;-78
2023/07/25 14:57:02;;;;;;;3.92;2.53;;;;;;;29.74;35.22;100488.94;10259291;28;96777;-79
2023/07/25 15:02:07;;;;;;;4.07;2.45;;;;;;;29.45;35.17;100477.84;10259190;28;96581;-79
2023/07/25 15:07:28;;;;;;;3.67;2.58;;;;;;;29.66;35.24;100481.66;10212329;28;96561;-79
2023/07/25 15:12:31;;;;;;;4.70;2.38;;;;;;;29.61;35.47;100481.34;10218410;28;96740;-79
2023/07/25 15:17:36;;;;;;;3.45;2.28;;;;;;;29.86;35.56;100465.78;10218145;28;96688;-79
2023/07/25 15:22:40;;;;;;;4.13;2.10;;;;;;;29.85;35.38;100467.66;10275768;28;97621;-79
2023/07/25 15:27:43;;;;;;;;;;;;;;;29.64;34.85;100466.59;10300407;28;96693;-78
2023/07/25 15:32:48;;;;;;;4.60;2.60;;;;;;;29.75;35.61;100469.75;10298966;28;96857;-79
2023/07/25 15:38:09;;;;;;;3.90;2.10;;;;;;;29.83;35.31;100460.75;10291734;28;97657;-79
2023/07/25 15:43:12;;;;;;;3.15;2.17;;;;;;;29.69;35.67;100466.91;10288300;28;96867;-79
2023/07/25 15:48:17;;;;;;;4.10;2.38;;;;;;;29.50;35.67;100467.31;10256594;28;96711;-79
2023/07/25 15:53:20;;;;;;;3.50;2.33;;;;;;;28.87;37.58;100465.47;10258332;28;97243;-79
2023/07/25 15:58:41;;;;;;;4.78;2.63;;;;;;;28.48;38.59;100469.88;10252270;28;96812;-79
2023/07/25 16:03:46;;;;;;;3.65;2.33;;;;;;;28.57;39.18;100479.69;10257472;28;96700;-79
2023/07/25 16:08:50;;;;;;;3.75;2.28;;;;;;;28.44;39.75;100476.69;10257386;28;97617;-79
2023/07/25 16:13:53;;;;;;;4.15;2.80;;;;;;;28.04;40.06;100474.75;10257549;28;96689;-79
2023/07/25 16:18:58;;;;;;;5.60;2.55;;;;;;;27.81;41.36;100479.09;10257651;28;96924;-79
2023/07/25 16:24:01;;;;;;;5.05;2.67;;;;;;;27.67;41.36;100474.31;10256596;28;96722;-79
2023/07/25 16:29:05;;;;;;;3.58;2.20;;;;;;;27.61;41.52;100477.66;10256910;28;98029;-80
2023/07/25 16:34:29;;;;;;;4.68;2.28;;;;;;;27.52;42.31;100472.38;10250514;28;97765;-79
2023/07/25 16:39:32;;;;;;;4.15;1.80;;;;;;;27.39;42.36;100472.81;10255920;28;96727;-79
2023/07/25 16:44:54;;;;;;;5.60;2.58;;;;;;;27.22;42.75;100454.84;10256409;28;96722;-79
2023/07/25 16:49:59;;;;;;;4.72;2.20;;;;;;;27.30;42.49;100457.59;10295817;28;96598;-79
2023/07/25 16:55:02;;;;;;;3.78;2.25;;;;;;;27.28;42.75;100462.31;10296121;28;96723;-79
2023/07/25 17:00:23;;;;;;;3.65;1.98;;;;;;;27.37;43.08;100458.63;10289469;28;96676;-79
2023/07/25 17:05:28;;;;;;;3.80;1.80;;;;;;;27.29;42.97;100455.03;10295010;28;96813;-79
2023/07/25 17:10:31;;;;;;;4.60;2.25;;;;;;;27.27;43.03;100457.91;10296557;28;96776;-79
2023/07/25 17:15:52;;;;;;;3.72;2.15;;;;;;;27.20;43.70;100461.44;10289796;28;97234;-79
2023/07/25 17:20:57;;;;;;;4.20;2.30;;;;;;;27.15;43.24;100461.06;10272304;28;96756;-79
2023/07/25 17:26:00;;;;;;;2.95;2.20;;;;;;;27.19;43.33;100465.97;10253872;28;97587;-79
2023/07/25 17:31:04;;;;;;;3.78;2.08;;;;;;;27.22;43.49;100462.94;10254166;28;97047;-79
2023/07/25 17:36:10;;;;;;;3.10;2.15;;;;;;;26.98;43.74;100469.03;10255058;28;96906;-79
2023/07/25 17:41:13;;;;;;;3.53;2.42;;;;;;;27.00;43.95;100467.03;10254091;28;96824;-79
2023/07/25 17:46:16;;;;;;;4.45;2.28;;;;;;;26.98;44.29;100474.44;10246426;28;96703;-79
2023/07/25 17:51:21;;;;;;;5.93;2.40;;;;;;;26.82;44.69;100474.34;10254180;28;97602;-79
2023/07/25 17:56:25;;;;;;;4.03;2.38;;;;;;;26.75;44.48;100475.97;10254341;28;97764;-78
2023/07/25 18:01:46;;;;;;;3.08;2.30;;;;;;;26.63;44.53;100473.69;10248228;28;97336;-79
2023/07/25 18:06:51;;;;;;;3.75;2.90;;;;;;;26.49;45.07;100471.56;10253797;28;97636;-79
2023/07/25 18:11:54;;;;;;;3.13;2.50;;;;;;;26.42;45.47;100465.94;10254693;28;97782;-79
2023/07/25 18:16:57;;;;;;;4.55;2.95;;;;;;;26.38;45.74;100478.06;10274705;22;97023;-79
2023/07/25 18:22:02;;;;;;;5.63;2.60;;;;;;;26.32;45.89;100475.94;10300403;28;97510;-79
2023/07/25 18:27:23;;;;;;;3.70;2.33;;;;;;;26.27;46.13;100486.34;10304745;28;96814;-79
2023/07/25 18:32:27;;;;;;;4.73;2.60;;;;;;;26.26;46.00;100481.97;10341505;28;96739;-79
2023/07/25 18:37:31;;;;;;;4.60;2.53;;;;;;;26.12;46.42;100477.13;10326702;28;97718;-79
2023/07/25 18:42:35;;;;;;;4.05;2.55;;;;;;;26.06;46.42;100483.09;10300510;28;97981;-79
2023/07/25 18:47:38;;;;;;;4.67;2.50;;;;;;;25.95;47.10;100483.34;10300463;28;97606;-79
2023/07/25 18:52:43;;;;;;;3.67;2.50;;;;;;;25.90;47.29;100485.63;10301142;28;96798;-79
2023/07/25 18:58:04;;;;;;;4.18;2.53;;;;;;;25.66;47.45;100493.41;10297236;28;96834;-79
2023/07/25 19:03:07;;;;;;;6.07;2.67;;;;;;;25.52;47.86;100488.56;10300213;28;96975;-79
2023/07/25 19:08:12;;;;;;;5.38;2.58;;;;;;;25.50;48.20;100494.06;10298659;28;96785;-79
2023/07/25 19:13:15;;;;;;;6.43;2.67;;;;;;;25.37;48.29;100498.09;10299463;28;96705;-79
2023/07/25 19:18:18;;;;;;;3.60;2.17;;;;;;;25.27;48.58;100497.31;10299211;28;99014;-79
2023/07/25 19:23:23;;;;;;;4.27;2.03;;;;;;;25.22;48.72;100503.16;10298343;28;96976;-79
2023/07/25 19:28:29;;;;;;;2.78;2.13;;;;;;;25.22;48.90;100511.22;10298914;28;97679;-79
2023/07/25 19:33:33;;;;;;;6.70;2.60;;;;;;;25.21;48.88;100506.81;10298941;28;96842;-79
2023/07/25 19:38:39;;;;;;;4.65;2.30;;;;;;;25.17;49.07;100512.66;10335828;28;97007;-79
2023/07/25 19:43:42;;;;;;;3.67;1.90;;;;;;;25.01;49.47;100515.13;10340182;28;96587;-79
2023/07/25 19:48:46;;;;;;;5.13;1.77;;;;;;;24.95;49.47;100513.81;10339413;28;97842;-78
2023/07/25 19:53:51;;;;;;;3.27;2.10;;;;;;;24.80;49.91;100526.91;10337889;28;97771;-79
2023/07/25 19:58:55;;;;;;;4.90;2.30;;;;;;;24.62;51.61;100534.00;10338176;28;97560;-79
2023/07/25 20:03:58;;;;;;;3.77;2.30;;;;;;;24.63;51.37;100542.94;10338552;28;96674;-79
2023/07/25 20:09:20;;;;;;;3.80;2.33;;;;;;;24.47;52.19;100550.72;10335919;28;96782;-78
2023/07/25 20:14:23;;;;;;;5.22;2.72;;;;;;;24.31;52.47;100553.09;10319823;28;96640;-79
2023/07/25 20:19:27;;;;;;;3.77;1.80;;;;;;;24.25;52.75;100561.72;10296437;28;96985;-79
2023/07/25 20:24:31;;;;;;;3.10;1.90;;;;;;;24.18;53.04;100566.81;10297081;28;97240;-79
2023/07/25 20:29:52;;;;;;;4.53;1.92;;;;;;;24.12;53.18;100578.13;10330902;28;96891;-79
2023/07/25 20:34:56;;;;;;;3.20;1.93;;;;;;;24.09;53.26;100582.91;10338482;28;96692;-79
2023/07/25 20:40:00;;;;;;;4.80;1.87;;;;;;;23.97;53.47;100590.25;10337402;28;96694;-79
2023/07/25 20:45:04;;;;;;;4.95;2.15;;;;;;;23.86;53.78;100595.72;10336890;28;96752;-79
2023/07/25 20:50:08;;;;;;;5.75;2.35;;;;;;;23.70;54.15;100584.66;10336114;28;96862;-79
2023/07/25 20:55:12;;;;;;;3.50;1.80;;;;;;;23.56;54.57;100590.41;10301215;28;96707;-79
2023/07/25 21:00:16;;;;;;;3.47;1.77;;;;;;;23.47;54.66;100599.22;10296626;28;96851;-79
2023/07/25 21:05:19;;;;;;;3.07;1.80;;;;;;;23.34;54.87;100595.88;10295895;28;96860;-79
2023/07/25 21:10:24;;;;;;;3.88;2.03;;;;;;;23.25;55.21;100613.66;10296053;28;96777;-79
2023/07/25 21:15:28;;;;;;;6.05;2.40;;;;;;;23.22;55.40;100613.06;10295381;28;96778;-79
2023/07/25 21:20:31;;;;;;;4.23;2.33;;;;;;;23.14;55.56;100611.06;10331309;28;96963;-79
2023/07/25 21:25:37;;;;;;;4.87;2.40;;;;;;;23.08;56.16;100616.06;10336772;28;97891;-78
2023/07/25 21:30:41;;;;;;;2.72;2.05;;;;;;;22.99;55.91;100617.72;10336405;28;97736;-78
2023/07/25 21:36:10;;;;;;;4.85;2.25;;;;;;;22.94;56.19;100627.16;10332229;28;97223;-79
2023/07/25 21:41:15;;;;;;;3.33;1.88;;;;;;;22.88;56.14;100624.97;10334999;28;96628;-78
2023/07/25 21:46:18;;;;;;;3.40;2.20;;;;;;;22.82;56.35;100626.34;10334763;28;96745;-79
2023/07/25 21:51:21;;;;;;;3.70;2.13;;;;;;;22.76;56.50;100621.47;10325479;28;97404;-79
2023/07/25 21:56:26;;;;;;;5.00;2.25;;;;;;;22.74;56.42;100618.06;10294225;28;97323;-79
2023/07/25 22:01:29;;;;;;;3.70;2.22;;;;;;;22.78;56.25;100627.59;10294535;28;97608;-78
2023/07/25 22:06:32;;;;;;;3.95;2.40;;;;;;;22.58;56.71;100621.19;10294356;28;96682;-79
2023/07/25 22:11:38;;;;;;;4.22;2.47;;;;;;;22.42;57.42;100612.69;10294912;28;96744;-79
2023/07/25 22:16:41;;;;;;;5.28;2.63;;;;;;;22.09;58.37;100617.31;10294228;28;96715;-79
2023/07/25 22:21:45;;;;;;;4.10;2.40;;;;;;;22.11;58.59;100618.88;10294014;28;97889;-79
2023/07/25 22:27:08;;;;;;;3.80;2.22;;;;;;;22.30;58.30;100620.91;10288008;28;96662;-79
2023/07/25 22:32:11;;;;;;;5.45;3.10;;;;;;;22.31;58.04;100612.75;10292598;28;96669;-78
2023/07/25 22:37:15;;;;;;;5.10;2.57;;;;;;;22.06;58.82;100609.50;10293605;28;97463;-79
2023/07/25 22:42:19;;;;;;;3.20;2.28;;;;;;;21.86;59.56;100602.19;10293847;28;96776;-79
2023/07/25 22:47:22;;;;;;;3.72;2.10;;;;;;;21.78;59.67;100610.00;10292627;28;96721;-78
2023/07/25 22:52:27;;;;;;;4.18;2.47;;;;;;;21.29;61.14;100610.34;10293269;28;96701;-79
2023/07/25 22:57:32;;;;;;;6.60;2.75;;;;;;;21.79;59.97;100615.25;10293018;28;96805;-79
2023/07/25 23:02:35;;;;;;;3.78;2.50;;;;;;;21.83;59.64;100607.81;10300479;28;96678;-79
2023/07/25 23:07:39;;;;;;;4.95;2.95;;;;;;;21.74;59.96;100609.41;10300720;28;98113;-79
2023/07/25 23:12:43;;;;;;;5.77;2.97;;;;;;;21.66;60.29;100611.00;10299514;28;97798;-79
2023/07/25 23:18:04;;;;;;;3.85;2.80;;;;;;;21.41;61.10;100601.34;10321969;28;96886;-79
2023/07/25 23:23:07;;;;;;;3.92;2.67;;;;;;;21.37;61.15;100615.94;10339323;28;96611;-79
2023/07/25 23:28:12;;;;;;;3.15;2.28;;;;;;;21.36;60.80;100615.09;10340191;28;96573;-79
2023/07/25 23:33:15;;;;;;;4.38;2.70;;;;;;;20.83;62.17;100609.47;10339130;28;98429;-79